sensor_id;sensor_type;location;lat;lon;timestamp;pressure;altitude;pressure_sealevel;temperature;humidity
50672;BME280;46021;55.882;37.654;2022-09-29T00:01:03;98362.63;;;7.66;80.89
50672;BME280;46021;55.882;37.654;2022-09-29T00:03:32;98375.66;;;7.65;80.67
50672;BME280;46021;55.882;37.654;2022-09-29T00:05:58;98378.44;;;7.60;80.94
50672;BME280;46021;55.882;37.654;2022-09-29T00:08:26;98380.38;;;7.55;81.18
50672;BME280;46021;55.882;37.654;2022-09-29T00:10:53;98382.97;;;7.55;80.80
50672;BME280;46021;55.882;37.654;2022-09-29T00:13:20;98377.94;;;7.50;80.76
50672;BME280;46021;55.882;37.654;2022-09-29T00:15:54;98377.13;;;7.50;81.22
50672;BME280;46021;55.882;37.654;2022-09-29T00:18:21;98381.53;;;7.48;80.80
50672;BME280;46021;55.882;37.654;2022-09-29T00:20:56;98375.56;;;7.46;81.75
50672;BME280;46021;55.882;37.654;2022-09-29T00:23:23;98382.44;;;7.47;81.80
50672;BME280;46021;55.882;37.654;2022-09-29T00:25:58;98379.03;;;7.45;81.75
50672;BME280;46021;55.882;37.654;2022-09-29T00:28:25;98383.41;;;7.44;81.66
50672;BME280;46021;55.882;37.654;2022-09-29T00:30:51;98394.75;;;7.41;81.68
50672;BME280;46021;55.882;37.654;2022-09-29T00:33:18;98396.41;;;7.42;81.70
50672;BME280;46021;55.882;37.654;2022-09-29T00:35:51;98386.28;;;7.36;81.83
50672;BME280;46021;55.882;37.654;2022-09-29T00:38:21;98393.03;;;7.40;81.68
50672;BME280;46021;55.882;37.654;2022-09-29T00:40:48;98395.78;;;7.37;81.84
50672;BME280;46021;55.882;37.654;2022-09-29T00:43:20;98391.38;;;7.39;81.79
50672;BME280;46021;55.882;37.654;2022-09-29T00:45:48;98393.19;;;7.37;81.69
50672;BME280;46021;55.882;37.654;2022-09-29T00:48:16;98396.66;;;7.36;81.55
50672;BME280;46021;55.882;37.654;2022-09-29T00:50:48;98408.84;;;7.34;81.65
50672;BME280;46021;55.882;37.654;2022-09-29T00:53:18;98410.66;;;7.32;81.86
50672;BME280;46021;55.882;37.654;2022-09-29T00:55:49;98408.94;;;7.31;82.06
50672;BME280;46021;55.882;37.654;2022-09-29T00:58:22;98408.16;;;7.29;82.06
50672;BME280;46021;55.882;37.654;2022-09-29T01:00:51;98410.75;;;7.29;82.37
50672;BME280;46021;55.882;37.654;2022-09-29T01:03:21;98412.53;;;7.29;82.05
50672;BME280;46021;55.882;37.654;2022-09-29T01:05:53;98405.03;;;7.21;81.96
50672;BME280;46021;55.882;37.654;2022-09-29T01:08:24;98423.78;;;7.28;81.99
50672;BME280;46021;55.882;37.654;2022-09-29T01:10:54;98424.66;;;7.28;82.08
50672;BME280;46021;55.882;37.654;2022-09-29T01:13:22;98414.38;;;7.25;82.17
50672;BME280;46021;55.882;37.654;2022-09-29T01:15:50;98416.19;;;7.23;82.34
50672;BME280;46021;55.882;37.654;2022-09-29T01:18:17;98418.53;;;7.29;82.16
50672;BME280;46021;55.882;37.654;2022-09-29T01:20:51;98418.72;;;7.25;82.15
50672;BME280;46021;55.882;37.654;2022-09-29T01:23:50;98429.03;;;7.26;81.96
50672;BME280;46021;55.882;37.654;2022-09-29T01:26:45;98419.56;;;7.25;81.75
50672;BME280;46021;55.882;37.654;2022-09-29T01:32:30;98417.91;;;7.24;81.66
50672;BME280;46021;55.882;37.654;2022-09-29T01:35:05;98416.09;;;7.26;82.01
50672;BME280;46021;55.882;37.654;2022-09-29T01:37:41;98419.56;;;7.25;81.51
50672;BME280;46021;55.882;37.654;2022-09-29T01:40:14;98414.38;;;7.25;81.59
50672;BME280;46021;55.882;37.654;2022-09-29T01:42:47;98415.22;;;7.26;81.82
50672;BME280;46021;55.882;37.654;2022-09-29T01:45:21;98420.41;;;7.26;81.57
50672;BME280;46021;55.882;37.654;2022-09-29T01:47:54;98414.63;;;7.19;81.46
50672;BME280;46021;55.882;37.654;2022-09-29T01:50:25;98417.91;;;7.24;81.97
50672;BME280;46021;55.882;37.654;2022-09-29T01:52:57;98430.78;;;7.26;81.65
50672;BME280;46021;55.882;37.654;2022-09-29T01:55:29;98437.66;;;7.27;81.74
50672;BME280;46021;55.882;37.654;2022-09-29T01:57:59;98439.28;;;7.29;81.64
50672;BME280;46021;55.882;37.654;2022-09-29T02:00:28;98436.69;;;7.29;81.45
50672;BME280;46021;55.882;37.654;2022-09-29T02:03:01;98431.41;;;7.32;82.24
50672;BME280;46021;55.882;37.654;2022-09-29T02:05:35;98443.44;;;7.33;81.65
50672;BME280;46021;55.882;37.654;2022-09-29T02:08:08;98442.50;;;7.36;81.50
50672;BME280;46021;55.882;37.654;2022-09-29T02:10:38;98438.97;;;7.37;81.99
50672;BME280;46021;55.882;37.654;2022-09-29T02:13:09;98443.22;;;7.39;82.06
50672;BME280;46021;55.882;37.654;2022-09-29T02:15:38;98448.41;;;7.39;81.86
50672;BME280;46021;55.882;37.654;2022-09-29T02:18:15;98451.84;;;7.40;82.00
50672;BME280;46021;55.882;37.654;2022-09-29T02:20:45;98447.47;;;7.40;81.18
50672;BME280;46021;55.882;37.654;2022-09-29T02:23:12;98442.44;;;7.37;82.01
50672;BME280;46021;55.882;37.654;2022-09-29T02:25:39;98458.53;;;7.46;81.64
50672;BME280;46021;55.882;37.654;2022-09-29T02:28:06;98457.56;;;7.48;81.89
50672;BME280;46021;55.882;37.654;2022-09-29T02:30:34;98461.06;;;7.47;81.44
50672;BME280;46021;55.882;37.654;2022-09-29T02:33:00;98451.53;;;7.48;81.32
50672;BME280;46021;55.882;37.654;2022-09-29T02:35:34;98458.28;;;7.52;81.29
50672;BME280;46021;55.882;37.654;2022-09-29T02:38:07;98458.03;;;7.58;81.55
50672;BME280;46021;55.882;37.654;2022-09-29T02:40:43;98460.63;;;7.58;80.76
50672;BME280;46021;55.882;37.654;2022-09-29T02:43:51;98458.03;;;7.58;81.24
50672;BME280;46021;55.882;37.654;2022-09-29T02:46:35;98457.19;;;7.57;81.04
50672;BME280;46021;55.882;37.654;2022-09-29T02:49:23;98459.75;;;7.59;81.21
50672;BME280;46021;55.882;37.654;2022-09-29T02:51:56;98466.63;;;7.60;81.15
50672;BME280;46021;55.882;37.654;2022-09-29T02:54:35;98459.75;;;7.59;80.87
50672;BME280;46021;55.882;37.654;2022-09-29T02:57:14;98464.81;;;7.62;81.13
50672;BME280;46021;55.882;37.654;2022-09-29T02:59:50;98463.94;;;7.61;81.39
50672;BME280;46021;55.882;37.654;2022-09-29T03:02:22;98464.81;;;7.62;80.73
50672;BME280;46021;55.882;37.654;2022-09-29T03:04:49;98464.94;;;7.59;81.19
50672;BME280;46021;55.882;37.654;2022-09-29T03:07:17;98470.00;;;7.62;81.14
50672;BME280;46021;55.882;37.654;2022-09-29T03:09:44;98465.81;;;7.58;80.74
50672;BME280;46021;55.882;37.654;2022-09-29T03:12:10;98459.75;;;7.59;80.72
50672;BME280;46021;55.882;37.654;2022-09-29T03:14:37;98471.63;;;7.65;80.15
50672;BME280;46021;55.882;37.654;2022-09-29T03:17:04;98472.41;;;7.67;80.53
50672;BME280;46021;55.882;37.654;2022-09-29T03:19:30;98469.75;;;7.68;80.14
50672;BME280;46021;55.882;37.654;2022-09-29T03:21:57;98468.03;;;7.67;80.35
50672;BME280;46021;55.882;37.654;2022-09-29T03:24:25;98466.19;;;7.71;80.93
50672;BME280;46021;55.882;37.654;2022-09-29T03:26:51;98471.31;;;7.72;80.90
50672;BME280;46021;55.882;37.654;2022-09-29T03:29:18;98470.34;;;7.75;80.15
50672;BME280;46021;55.882;37.654;2022-09-29T03:31:45;98466.13;;;7.72;80.22
50672;BME280;46021;55.882;37.654;2022-09-29T03:34:11;98476.41;;;7.75;80.08
50672;BME280;46021;55.882;37.654;2022-09-29T03:36:38;98474.69;;;7.74;80.10
50672;BME280;46021;55.882;37.654;2022-09-29T03:39:05;98483.16;;;7.79;80.10
50672;BME280;46021;55.882;37.654;2022-09-29T03:41:33;98478.06;;;7.76;79.83
50672;BME280;46021;55.882;37.654;2022-09-29T03:43:59;98485.84;;;7.76;80.01
50672;BME280;46021;55.882;37.654;2022-09-29T03:46:26;98484.13;;;7.77;80.19
50672;BME280;46021;55.882;37.654;2022-09-29T03:48:53;98484.94;;;7.77;80.33
50672;BME280;46021;55.882;37.654;2022-09-29T03:51:20;98493.56;;;7.78;79.60
50672;BME280;46021;55.882;37.654;2022-09-29T03:53:46;98490.97;;;7.78;80.35
50672;BME280;46021;55.882;37.654;2022-09-29T03:56:13;98497.88;;;7.79;79.75
50672;BME280;46021;55.882;37.654;2022-09-29T03:58:40;98500.38;;;7.80;80.54
50672;BME280;46021;55.882;37.654;2022-09-29T04:01:07;98508.97;;;7.83;80.00
50672;BME280;46021;55.882;37.654;2022-09-29T04:03:34;98509.81;;;7.83;79.72
50672;BME280;46021;55.882;37.654;2022-09-29T04:06:00;98507.16;;;7.85;79.56
50672;BME280;46021;55.882;37.654;2022-09-29T04:08:27;98504.69;;;7.81;78.97
50672;BME280;46021;55.882;37.654;2022-09-29T04:10:53;98508.97;;;7.83;79.04
50672;BME280;46021;55.882;37.654;2022-09-29T04:13:20;98507.16;;;7.85;79.06
50672;BME280;46021;55.882;37.654;2022-09-29T04:15:47;98507.16;;;7.85;79.59
50672;BME280;46021;55.882;37.654;2022-09-29T04:18:14;98507.16;;;7.85;79.34
50672;BME280;46021;55.882;37.654;2022-09-29T04:20:41;98509.56;;;7.89;78.66
50672;BME280;46021;55.882;37.654;2022-09-29T04:23:08;98519.81;;;7.92;78.77
50672;BME280;46021;55.882;37.654;2022-09-29T04:25:34;98518.84;;;7.95;78.83
50672;BME280;46021;55.882;37.654;2022-09-29T04:28:02;98519.63;;;7.97;78.83
50672;BME280;46021;55.882;37.654;2022-09-29T04:30:28;98515.47;;;7.93;78.11
50672;BME280;46021;55.882;37.654;2022-09-29T04:32:56;98521.19;;;8.01;78.50
50672;BME280;46021;55.882;37.654;2022-09-29T04:35:22;98523.69;;;8.04;78.18
50672;BME280;46021;55.882;37.654;2022-09-29T04:37:49;98520.16;;;8.05;77.83
50672;BME280;46021;55.882;37.654;2022-09-29T04:40:21;98516.66;;;8.06;78.11
50672;BME280;46021;55.882;37.654;2022-09-29T04:42:48;98510.59;;;8.07;78.43
50672;BME280;46021;55.882;37.654;2022-09-29T04:45:15;98523.16;;;8.16;78.09
50672;BME280;46021;55.882;37.654;2022-09-29T04:47:41;98516.31;;;8.15;78.40
50672;BME280;46021;55.882;37.654;2022-09-29T04:50:09;98527.25;;;8.22;78.07
50672;BME280;46021;55.882;37.654;2022-09-29T04:52:35;98522.88;;;8.24;77.88
50672;BME280;46021;55.882;37.654;2022-09-29T04:55:02;98520.97;;;8.28;77.97
50672;BME280;46021;55.882;37.654;2022-09-29T04:57:29;98517.38;;;8.32;77.89
50672;BME280;46021;55.882;37.654;2022-09-29T04:59:56;98513.00;;;8.32;77.20
50672;BME280;46021;55.882;37.654;2022-09-29T05:02:22;98517.59;;;8.48;77.64
50672;BME280;46021;55.882;37.654;2022-09-29T05:04:50;98515.59;;;8.54;77.25
50672;BME280;46021;55.882;37.654;2022-09-29T05:07:17;98520.53;;;8.61;77.03
50672;BME280;46021;55.882;37.654;2022-09-29T05:09:43;98517.66;;;8.67;77.46
50672;BME280;46021;55.882;37.654;2022-09-29T05:12:10;98523.44;;;8.73;77.06
50672;BME280;46021;55.882;37.654;2022-09-29T05:14:36;98517.16;;;8.79;77.11
50672;BME280;46021;55.882;37.654;2022-09-29T05:17:03;98523.75;;;8.86;76.73
50672;BME280;46021;55.882;37.654;2022-09-29T05:19:30;98524.88;;;9.00;76.09
50672;BME280;46021;55.882;37.654;2022-09-29T05:21:57;98515.78;;;9.10;76.17
50672;BME280;46021;55.882;37.654;2022-09-29T05:24:25;98513.19;;;9.10;75.31
50672;BME280;46021;55.882;37.654;2022-09-29T05:26:51;98514.66;;;9.15;75.47
50672;BME280;46021;55.882;37.654;2022-09-29T05:29:18;98520.53;;;9.21;75.27
50672;BME280;46021;55.882;37.654;2022-09-29T05:31:45;98525.78;;;9.19;75.17
50672;BME280;46021;55.882;37.654;2022-09-29T05:34:11;98541.09;;;9.25;74.79
50672;BME280;46021;55.882;37.654;2022-09-29T05:36:38;98546.59;;;9.19;74.36
50672;BME280;46021;55.882;37.654;2022-09-29T05:39:05;98547.69;;;9.13;74.05
50672;BME280;46021;55.882;37.654;2022-09-29T05:41:32;98554.78;;;9.10;73.72
50672;BME280;46021;55.882;37.654;2022-09-29T05:43:59;98554.41;;;8.98;74.08
50672;BME280;46021;55.882;37.654;2022-09-29T05:46:26;98559.72;;;8.95;74.07
50672;BME280;46021;55.882;37.654;2022-09-29T05:48:53;98571.16;;;8.91;74.02
50672;BME280;46021;55.882;37.654;2022-09-29T05:51:21;98563.50;;;8.88;74.20
50672;BME280;46021;55.882;37.654;2022-09-29T05:53:48;98555.91;;;8.84;74.12
50672;BME280;46021;55.882;37.654;2022-09-29T05:56:16;98568.69;;;8.88;74.08
50672;BME280;46021;55.882;37.654;2022-09-29T05:58:44;98557.53;;;8.86;73.82
50672;BME280;46021;55.882;37.654;2022-09-29T06:01:12;98566.09;;;8.88;73.50
50672;BME280;46021;55.882;37.654;2022-09-29T06:03:41;98568.69;;;8.88;73.69
50672;BME280;46021;55.882;37.654;2022-09-29T06:06:09;98565.31;;;8.86;73.81
50672;BME280;46021;55.882;37.654;2022-09-29T06:08:37;98574.59;;;8.92;73.84
50672;BME280;46021;55.882;37.654;2022-09-29T06:11:05;98569.50;;;8.90;74.15
50672;BME280;46021;55.882;37.654;2022-09-29T06:13:31;98576.88;;;9.00;74.01
50672;BME280;46021;55.882;37.654;2022-09-29T06:16:00;98568.19;;;9.01;74.48
50672;BME280;46021;55.882;37.654;2022-09-29T06:18:26;98577.34;;;9.09;73.88
50672;BME280;46021;55.882;37.654;2022-09-29T06:20:53;98577.25;;;9.11;73.97
50672;BME280;46021;55.882;37.654;2022-09-29T06:23:25;98567.78;;;9.10;73.78
50672;BME280;46021;55.882;37.654;2022-09-29T06:25:55;98583.59;;;9.24;73.99
50672;BME280;46021;55.882;37.654;2022-09-29T06:28:21;98573.56;;;9.35;74.30
50672;BME280;46021;55.882;37.654;2022-09-29T06:30:48;98563.75;;;9.42;73.66
50672;BME280;46021;55.882;37.654;2022-09-29T06:33:15;98577.25;;;9.50;73.78
50672;BME280;46021;55.882;37.654;2022-09-29T06:35:45;98574.56;;;9.52;73.45
50672;BME280;46021;55.882;37.654;2022-09-29T06:38:30;98570.91;;;9.56;73.65
50672;BME280;46021;55.882;37.654;2022-09-29T06:40:56;98564.66;;;9.60;73.99
50672;BME280;46021;55.882;37.654;2022-09-29T06:43:23;98577.88;;;9.74;74.01
50672;BME280;46021;55.882;37.654;2022-09-29T06:45:49;98573.75;;;9.70;73.83
50672;BME280;46021;55.882;37.654;2022-09-29T06:48:17;98585.69;;;9.74;73.19
50672;BME280;46021;55.882;37.654;2022-09-29T06:50:43;98574.75;;;9.68;72.81
50672;BME280;46021;55.882;37.654;2022-09-29T06:53:10;98577.47;;;9.65;73.30
50672;BME280;46021;55.882;37.654;2022-09-29T06:55:36;98579.94;;;9.68;74.03
50672;BME280;46021;55.882;37.654;2022-09-29T06:58:03;98579.94;;;9.87;73.93
50672;BME280;46021;55.882;37.654;2022-09-29T07:00:31;98579.03;;;10.05;73.57
50672;BME280;46021;55.882;37.654;2022-09-29T07:02:58;98582.41;;;10.07;72.70
50672;BME280;46021;55.882;37.654;2022-09-29T07:05:25;98586.16;;;10.02;72.57
50672;BME280;46021;55.882;37.654;2022-09-29T07:07:52;98590.06;;;9.93;72.73
50672;BME280;46021;55.882;37.654;2022-09-29T07:10:20;98581.25;;;9.76;73.02
50672;BME280;46021;55.882;37.654;2022-09-29T07:12:47;98589.06;;;9.76;72.92
50672;BME280;46021;55.882;37.654;2022-09-29T07:15:14;98579.78;;;9.71;72.98
50672;BME280;46021;55.882;37.654;2022-09-29T07:17:40;98595.88;;;9.79;72.96
50672;BME280;46021;55.882;37.654;2022-09-29T07:20:07;98582.03;;;9.79;73.00
50672;BME280;46021;55.882;37.654;2022-09-29T07:22:35;98597.66;;;9.79;72.79
50672;BME280;46021;55.882;37.654;2022-09-29T07:25:01;98605.75;;;9.72;72.97
50672;BME280;46021;55.882;37.654;2022-09-29T07:27:29;98610.31;;;9.67;73.12
50672;BME280;46021;55.882;37.654;2022-09-29T07:29:58;98621.28;;;9.55;73.21
50672;BME280;46021;55.882;37.654;2022-09-29T07:32:25;98611.28;;;9.46;73.28
50672;BME280;46021;55.882;37.654;2022-09-29T07:34:52;98623.34;;;9.47;73.63
50672;BME280;46021;55.882;37.654;2022-09-29T07:37:18;98626.94;;;9.44;74.34
50672;BME280;46021;55.882;37.654;2022-09-29T07:39:45;98630.31;;;9.46;74.23
50672;BME280;46021;55.882;37.654;2022-09-29T07:42:12;98630.38;;;9.45;74.13
50672;BME280;46021;55.882;37.654;2022-09-29T07:44:38;98637.06;;;9.50;74.46
50672;BME280;46021;55.882;37.654;2022-09-29T07:47:05;98624.94;;;9.51;74.66
50672;BME280;46021;55.882;37.654;2022-09-29T07:49:31;98635.06;;;9.57;74.86
50672;BME280;46021;55.882;37.654;2022-09-29T07:51:58;98629.69;;;9.60;74.62
50672;BME280;46021;55.882;37.654;2022-09-29T07:54:25;98638.31;;;9.62;74.49
50672;BME280;46021;55.882;37.654;2022-09-29T07:56:52;98637.44;;;9.62;75.03
50672;BME280;46021;55.882;37.654;2022-09-29T07:59:19;98639.84;;;9.66;75.10
50672;BME280;46021;55.882;37.654;2022-09-29T08:01:45;98643.78;;;9.75;75.14
50672;BME280;46021;55.882;37.654;2022-09-29T08:04:12;98638.09;;;9.86;75.06
50672;BME280;46021;55.882;37.654;2022-09-29T08:06:38;98650.13;;;9.88;74.79
50672;BME280;46021;55.882;37.654;2022-09-29T08:09:05;98645.78;;;9.89;74.62
50672;BME280;46021;55.882;37.654;2022-09-29T08:11:32;98652.66;;;9.90;74.69
50672;BME280;46021;55.882;37.654;2022-09-29T08:14:02;98643.78;;;9.94;75.13
50672;BME280;46021;55.882;37.654;2022-09-29T08:16:29;98646.75;;;10.05;75.07
50672;BME280;46021;55.882;37.654;2022-09-29T08:18:56;98646.53;;;10.10;74.78
50672;BME280;46021;55.882;37.654;2022-09-29T08:21:23;98660.69;;;10.23;74.75
50672;BME280;46021;55.882;37.654;2022-09-29T08:23:50;98661.19;;;10.31;74.69
50672;BME280;46021;55.882;37.654;2022-09-29T08:26:18;98668.81;;;10.36;74.26
50672;BME280;46021;55.882;37.654;2022-09-29T08:28:46;98673.06;;;10.37;74.11
50672;BME280;46021;55.882;37.654;2022-09-29T08:31:14;98683.88;;;10.28;74.05
50672;BME280;46021;55.882;37.654;2022-09-29T08:33:42;98680.69;;;10.23;73.96
50672;BME280;46021;55.882;37.654;2022-09-29T08:36:09;98685.31;;;10.16;74.15
50672;BME280;46021;55.882;37.654;2022-09-29T08:38:40;98693.13;;;10.16;74.34
50672;BME280;46021;55.882;37.654;2022-09-29T08:41:19;98686.31;;;10.13;74.40
50672;BME280;46021;55.882;37.654;2022-09-29T08:43:50;98688.81;;;10.15;74.54
50672;BME280;46021;55.882;37.654;2022-09-29T08:46:23;98696.56;;;10.17;74.36
50672;BME280;46021;55.882;37.654;2022-09-29T08:48:52;98697.28;;;10.20;74.50
50672;BME280;46021;55.882;37.654;2022-09-29T08:51:24;98691.09;;;10.23;74.66
50672;BME280;46021;55.882;37.654;2022-09-29T08:53:55;98691.47;;;10.34;74.82
50672;BME280;46021;55.882;37.654;2022-09-29T08:56:25;98693.97;;;10.54;74.94
50672;BME280;46021;55.882;37.654;2022-09-29T08:58:52;98703.44;;;10.75;74.78
50672;BME280;46021;55.882;37.654;2022-09-29T09:01:23;98688.88;;;10.88;74.39
50672;BME280;46021;55.882;37.654;2022-09-29T09:04:16;98703.63;;;11.06;73.65
50672;BME280;46021;55.882;37.654;2022-09-29T09:06:55;98693.13;;;11.25;73.66
50672;BME280;46021;55.882;37.654;2022-09-29T09:09:34;98700.41;;;11.36;73.04
50672;BME280;46021;55.882;37.654;2022-09-29T09:12:22;98695.72;;;11.43;72.17
50672;BME280;46021;55.882;37.654;2022-09-29T09:15:00;98702.22;;;11.34;71.82
50672;BME280;46021;55.882;37.654;2022-09-29T09:17:44;98712.16;;;11.27;71.94
50672;BME280;46021;55.882;37.654;2022-09-29T09:20:24;98705.72;;;11.17;72.18
50672;BME280;46021;55.882;37.654;2022-09-29T09:22:58;98714.91;;;11.07;72.32
50672;BME280;46021;55.882;37.654;2022-09-29T09:25:30;98705.00;;;10.96;72.39
50672;BME280;46021;55.882;37.654;2022-09-29T09:28:04;98717.50;;;11.07;72.95
50672;BME280;46021;55.882;37.654;2022-09-29T09:30:37;98712.16;;;11.10;73.25
50672;BME280;46021;55.882;37.654;2022-09-29T09:33:13;98715.97;;;11.20;72.55
50672;BME280;46021;55.882;37.654;2022-09-29T09:35:46;98725.06;;;11.30;72.58
50672;BME280;46021;55.882;37.654;2022-09-29T09:38:19;98727.47;;;11.34;72.56
50672;BME280;46021;55.882;37.654;2022-09-29T09:40:49;98729.00;;;11.38;72.81
50672;BME280;46021;55.882;37.654;2022-09-29T09:43:21;98728.00;;;11.58;73.17
50672;BME280;46021;55.882;37.654;2022-09-29T09:45:53;98716.63;;;11.76;72.87
50672;BME280;46021;55.882;37.654;2022-09-29T09:48:26;98724.97;;;12.00;71.74
50672;BME280;46021;55.882;37.654;2022-09-29T09:50:55;98727.94;;;12.10;71.35
50672;BME280;46021;55.882;37.654;2022-09-29T09:53:28;98730.19;;;12.00;71.28
50672;BME280;46021;55.882;37.654;2022-09-29T09:56:06;98729.75;;;11.92;70.84
50672;BME280;46021;55.882;37.654;2022-09-29T09:59:06;98735.75;;;11.77;70.70
50672;BME280;46021;55.882;37.654;2022-09-29T10:01:36;98728.53;;;11.64;71.25
50672;BME280;46021;55.882;37.654;2022-09-29T10:04:03;98733.31;;;11.56;71.89
50672;BME280;46021;55.882;37.654;2022-09-29T10:06:30;98731.00;;;11.50;71.93
50672;BME280;46021;55.882;37.654;2022-09-29T10:08:56;98719.44;;;11.38;71.73
50672;BME280;46021;55.882;37.654;2022-09-29T10:11:25;98734.09;;;11.41;71.89
50672;BME280;46021;55.882;37.654;2022-09-29T10:13:58;98726.56;;;11.35;72.02
50672;BME280;46021;55.882;37.654;2022-09-29T10:16:30;98725.81;;;11.32;72.29
50672;BME280;46021;55.882;37.654;2022-09-29T10:18:59;98735.25;;;11.35;72.47
50672;BME280;46021;55.882;37.654;2022-09-29T10:21:35;98735.00;;;11.40;72.47
50672;BME280;46021;55.882;37.654;2022-09-29T10:24:03;98742.69;;;11.43;72.63
50672;BME280;46021;55.882;37.654;2022-09-29T10:26:39;98752.09;;;11.45;72.77
50672;BME280;46021;55.882;37.654;2022-09-29T10:29:21;98754.97;;;11.41;72.38
50672;BME280;46021;55.882;37.654;2022-09-29T10:32:01;98761.19;;;11.38;72.43
50672;BME280;46021;55.882;37.654;2022-09-29T10:34:29;98767.63;;;11.31;72.49
50672;BME280;46021;55.882;37.654;2022-09-29T10:36:58;98767.56;;;11.32;72.93
50672;BME280;46021;55.882;37.654;2022-09-29T10:39:37;98761.97;;;11.23;72.89
50672;BME280;46021;55.882;37.654;2022-09-29T10:42:17;98777.75;;;11.20;73.14
50672;BME280;46021;55.882;37.654;2022-09-29T10:44:50;98776.03;;;11.19;73.33
50672;BME280;46021;55.882;37.654;2022-09-29T10:47:19;98782.13;;;11.19;73.00
50672;BME280;46021;55.882;37.654;2022-09-29T10:49:46;98789.66;;;11.25;73.24
50672;BME280;46021;55.882;37.654;2022-09-29T10:52:21;98794.63;;;11.30;73.57
50672;BME280;46021;55.882;37.654;2022-09-29T10:54:54;98797.16;;;11.31;73.25
50672;BME280;46021;55.882;37.654;2022-09-29T10:57:25;98797.94;;;11.34;73.71
50672;BME280;46021;55.882;37.654;2022-09-29T10:59:52;98806.00;;;11.29;73.23
50672;BME280;46021;55.882;37.654;2022-09-29T11:02:23;98807.47;;;11.35;73.27
50672;BME280;46021;55.882;37.654;2022-09-29T11:05:00;98811.81;;;11.34;73.58
50672;BME280;46021;55.882;37.654;2022-09-29T11:07:31;98812.13;;;11.28;73.38
50672;BME280;46021;55.882;37.654;2022-09-29T11:09:59;98807.13;;;11.23;73.51
50672;BME280;46021;55.882;37.654;2022-09-29T11:12:34;98799.44;;;11.20;73.26
50672;BME280;46021;55.882;37.654;2022-09-29T11:15:21;98818.19;;;11.28;73.45
50672;BME280;46021;55.882;37.654;2022-09-29T11:17:49;98827.06;;;11.24;73.32
50672;BME280;46021;55.882;37.654;2022-09-29T11:20:16;98820.31;;;11.20;73.28
50672;BME280;46021;55.882;37.654;2022-09-29T11:23:14;98816.25;;;11.15;73.66
50672;BME280;46021;55.882;37.654;2022-09-29T11:25:54;98828.22;;;11.19;74.15
50672;BME280;46021;55.882;37.654;2022-09-29T11:31:38;98837.38;;;11.27;73.79
50672;BME280;46021;55.882;37.654;2022-09-29T11:34:38;98832.59;;;11.18;73.72
50672;BME280;46021;55.882;37.654;2022-09-29T11:37:23;98839.66;;;11.16;73.59
50672;BME280;46021;55.882;37.654;2022-09-29T11:40:02;98836.41;;;11.11;74.01
50672;BME280;46021;55.882;37.654;2022-09-29T11:42:44;98855.44;;;11.13;73.71
50672;BME280;46021;55.882;37.654;2022-09-29T11:45:18;98860.25;;;11.03;73.97
50672;BME280;46021;55.882;37.654;2022-09-29T11:50:48;98859.97;;;10.90;74.42
50672;BME280;46021;55.882;37.654;2022-09-29T11:53:32;98856.59;;;10.88;74.79
50672;BME280;46021;55.882;37.654;2022-09-29T11:56:19;98864.81;;;10.98;75.02
50672;BME280;46021;55.882;37.654;2022-09-29T11:58:59;98875.91;;;11.03;74.61
50672;BME280;46021;55.882;37.654;2022-09-29T12:01:39;98879.22;;;11.07;74.72
50672;BME280;46021;55.882;37.654;2022-09-29T12:04:17;98865.53;;;11.02;74.23
50672;BME280;46021;55.882;37.654;2022-09-29T12:06:52;98860.41;;;11.00;73.93
50672;BME280;46021;55.882;37.654;2022-09-29T12:12:37;98871.97;;;11.67;74.48
50672;BME280;46021;55.882;37.654;2022-09-29T12:15:21;98878.59;;;12.27;74.09
50672;BME280;46021;55.882;37.654;2022-09-29T12:17:55;98877.88;;;12.90;73.08
50672;BME280;46021;55.882;37.654;2022-09-29T12:20:27;98870.38;;;13.32;71.38
50672;BME280;46021;55.882;37.654;2022-09-29T12:22:56;98879.28;;;13.59;70.07
50672;BME280;46021;55.882;37.654;2022-09-29T12:25:28;98875.13;;;13.55;68.98
50672;BME280;46021;55.882;37.654;2022-09-29T12:28:01;98878.78;;;13.53;68.69
50672;BME280;46021;55.882;37.654;2022-09-29T12:30:32;98885.25;;;13.31;67.95
50672;BME280;46021;55.882;37.654;2022-09-29T12:33:05;98874.72;;;13.15;68.25
50672;BME280;46021;55.882;37.654;2022-09-29T12:35:37;98883.44;;;13.16;68.47
50672;BME280;46021;55.882;37.654;2022-09-29T12:38:13;98880.47;;;13.06;68.60
50672;BME280;46021;55.882;37.654;2022-09-29T12:40:43;98889.91;;;12.93;68.50
50672;BME280;46021;55.882;37.654;2022-09-29T12:43:17;98894.13;;;12.79;68.30
50672;BME280;46021;55.882;37.654;2022-09-29T12:45:53;98884.50;;;12.64;68.76
50672;BME280;46021;55.882;37.654;2022-09-29T12:48:33;98884.97;;;12.55;68.61
50672;BME280;46021;55.882;37.654;2022-09-29T12:51:08;98895.78;;;12.31;68.43
50672;BME280;46021;55.882;37.654;2022-09-29T12:53:44;98899.03;;;12.19;68.48
50672;BME280;46021;55.882;37.654;2022-09-29T12:56:17;98903.72;;;12.12;68.75
50672;BME280;46021;55.882;37.654;2022-09-29T12:58:49;98902.88;;;12.12;69.26
50672;BME280;46021;55.882;37.654;2022-09-29T13:01:20;98914.41;;;12.07;68.97
50672;BME280;46021;55.882;37.654;2022-09-29T13:04:07;98915.34;;;12.06;68.95
50672;BME280;46021;55.882;37.654;2022-09-29T13:09:45;98903.03;;;12.08;69.24
50672;BME280;46021;55.882;37.654;2022-09-29T13:12:32;98895.81;;;12.14;68.92
50672;BME280;46021;55.882;37.654;2022-09-29T13:15:23;98896.81;;;12.11;68.82
50672;BME280;46021;55.882;37.654;2022-09-29T13:18:10;98902.19;;;12.08;68.67
50672;BME280;46021;55.882;37.654;2022-09-29T13:24:01;98913.16;;;12.15;68.95
50672;BME280;46021;55.882;37.654;2022-09-29T13:26:49;98903.88;;;12.09;69.19
50672;BME280;46021;55.882;37.654;2022-09-29T13:29:21;98918.19;;;12.19;69.50
50672;BME280;46021;55.882;37.654;2022-09-29T13:31:50;98929.16;;;12.26;69.29
50672;BME280;46021;55.882;37.654;2022-09-29T13:34:27;98929.69;;;12.33;69.41